sensor_id;sensor_type;location;lat;lon;timestamp;P1;durP1;ratioP1;P2;durP2;ratioP2
20124;SDS011;10223;50.862;4.360;2023-06-24T00:02:22;5.55;;;3.40;;
20124;SDS011;10223;50.862;4.360;2023-06-24T00:04:49;7.05;;;3.67;;
20124;SDS011;10223;50.862;4.360;2023-06-24T00:07:17;5.55;;;3.00;;
20124;SDS011;10223;50.862;4.360;2023-06-24T00:09:47;6.05;;;2.95;;
20124;SDS011;10223;50.862;4.360;2023-06-24T00:12:14;8.40;;;4.20;;
20124;SDS011;10223;50.862;4.360;2023-06-24T00:14:45;4.25;;;3.13;;
20124;SDS011;10223;50.862;4.360;2023-06-24T00:17:13;4.28;;;2.70;;
20124;SDS011;10223;50.862;4.360;2023-06-24T00:19:41;5.60;;;3.58;;
20124;SDS011;10223;50.862;4.360;2023-06-24T00:22:10;5.90;;;3.00;;
20124;SDS011;10223;50.862;4.360;2023-06-24T00:24:36;4.05;;;2.30;;
20124;SDS011;10223;50.862;4.360;2023-06-24T00:27:05;4.72;;;2.50;;
20124;SDS011;10223;50.862;4.360;2023-06-24T00:29:32;3.95;;;2.72;;
20124;SDS011;10223;50.862;4.360;2023-06-24T00:32:00;4.10;;;2.90;;
20124;SDS011;10223;50.862;4.360;2023-06-24T00:34:27;3.65;;;2.45;;
20124;SDS011;10223;50.862;4.360;2023-06-24T00:36:54;5.72;;;2.63;;
20124;SDS011;10223;50.862;4.360;2023-06-24T00:39:20;4.30;;;2.95;;
20124;SDS011;10223;50.862;4.360;2023-06-24T00:41:48;3.45;;;2.28;;
20124;SDS011;10223;50.862;4.360;2023-06-24T00:44:14;4.93;;;2.67;;
20124;SDS011;10223;50.862;4.360;2023-06-24T00:46:42;6.35;;;2.67;;
20124;SDS011;10223;50.862;4.360;2023-06-24T00:49:10;3.83;;;2.47;;
20124;SDS011;10223;50.862;4.360;2023-06-24T00:51:39;7.32;;;3.33;;
20124;SDS011;10223;50.862;4.360;2023-06-24T00:54:15;6.93;;;2.97;;
20124;SDS011;10223;50.862;4.360;2023-06-24T00:56:42;5.82;;;3.15;;
20124;SDS011;10223;50.862;4.360;2023-06-24T00:59:09;5.95;;;3.42;;
20124;SDS011;10223;50.862;4.360;2023-06-24T01:01:38;6.78;;;3.22;;
20124;SDS011;10223;50.862;4.360;2023-06-24T01:04:07;7.95;;;3.13;;
20124;SDS011;10223;50.862;4.360;2023-06-24T01:06:36;6.80;;;3.58;;
20124;SDS011;10223;50.862;4.360;2023-06-24T01:09:08;5.03;;;3.25;;
20124;SDS011;10223;50.862;4.360;2023-06-24T01:11:35;7.07;;;3.40;;
20124;SDS011;10223;50.862;4.360;2023-06-24T01:14:02;3.85;;;2.92;;
20124;SDS011;10223;50.862;4.360;2023-06-24T01:16:30;7.45;;;3.58;;
20124;SDS011;10223;50.862;4.360;2023-06-24T01:19:04;7.30;;;4.38;;
20124;SDS011;10223;50.862;4.360;2023-06-24T01:21:53;9.20;;;4.28;;
20124;SDS011;10223;50.862;4.360;2023-06-24T01:24:48;8.20;;;4.50;;
20124;SDS011;10223;50.862;4.360;2023-06-24T01:27:32;8.35;;;4.72;;
20124;SDS011;10223;50.862;4.360;2023-06-24T01:30:30;7.40;;;4.40;;
20124;SDS011;10223;50.862;4.360;2023-06-24T01:33:10;7.78;;;4.60;;
20124;SDS011;10223;50.862;4.360;2023-06-24T01:35:41;8.27;;;5.10;;
20124;SDS011;10223;50.862;4.360;2023-06-24T01:38:10;7.65;;;4.40;;
20124;SDS011;10223;50.862;4.360;2023-06-24T01:40:46;6.32;;;4.63;;
20124;SDS011;10223;50.862;4.360;2023-06-24T01:43:15;8.82;;;4.60;;
20124;SDS011;10223;50.862;4.360;2023-06-24T01:45:45;7.63;;;4.70;;
20124;SDS011;10223;50.862;4.360;2023-06-24T01:48:16;7.63;;;4.35;;
20124;SDS011;10223;50.862;4.360;2023-06-24T01:50:48;8.82;;;4.60;;
20124;SDS011;10223;50.862;4.360;2023-06-24T01:53:19;8.13;;;4.70;;
20124;SDS011;10223;50.862;4.360;2023-06-24T01:55:47;7.63;;;4.47;;
20124;SDS011;10223;50.862;4.360;2023-06-24T01:58:15;7.15;;;4.50;;
20124;SDS011;10223;50.862;4.360;2023-06-24T02:00:45;5.88;;;4.30;;
20124;SDS011;10223;50.862;4.360;2023-06-24T02:03:14;8.77;;;4.72;;
20124;SDS011;10223;50.862;4.360;2023-06-24T02:05:43;11.18;;;4.53;;
20124;SDS011;10223;50.862;4.360;2023-06-24T02:08:12;8.63;;;4.95;;
20124;SDS011;10223;50.862;4.360;2023-06-24T02:10:40;7.53;;;4.97;;
20124;SDS011;10223;50.862;4.360;2023-06-24T02:13:09;7.30;;;5.18;;
20124;SDS011;10223;50.862;4.360;2023-06-24T02:15:37;9.50;;;4.55;;
20124;SDS011;10223;50.862;4.360;2023-06-24T02:18:06;8.63;;;4.93;;
20124;SDS011;10223;50.862;4.360;2023-06-24T02:20:37;8.60;;;5.10;;
20124;SDS011;10223;50.862;4.360;2023-06-24T02:23:06;10.85;;;5.03;;
20124;SDS011;10223;50.862;4.360;2023-06-24T02:25:34;8.20;;;5.40;;
20124;SDS011;10223;50.862;4.360;2023-06-24T02:28:04;8.73;;;4.60;;
20124;SDS011;10223;50.862;4.360;2023-06-24T02:30:32;8.32;;;4.72;;
20124;SDS011;10223;50.862;4.360;2023-06-24T02:33:00;7.47;;;5.10;;
20124;SDS011;10223;50.862;4.360;2023-06-24T02:35:27;8.40;;;4.93;;
20124;SDS011;10223;50.862;4.360;2023-06-24T02:37:55;9.07;;;4.38;;
20124;SDS011;10223;50.862;4.360;2023-06-24T02:40:22;7.22;;;4.72;;
20124;SDS011;10223;50.862;4.360;2023-06-24T02:42:49;10.77;;;4.68;;
20124;SDS011;10223;50.862;4.360;2023-06-24T02:45:16;7.97;;;4.50;;
20124;SDS011;10223;50.862;4.360;2023-06-24T02:47:45;9.70;;;4.38;;
20124;SDS011;10223;50.862;4.360;2023-06-24T02:50:13;7.28;;;4.60;;
20124;SDS011;10223;50.862;4.360;2023-06-24T02:52:41;8.35;;;4.55;;
20124;SDS011;10223;50.862;4.360;2023-06-24T02:55:09;7.55;;;4.50;;
20124;SDS011;10223;50.862;4.360;2023-06-24T02:57:39;7.72;;;4.63;;
20124;SDS011;10223;50.862;4.360;2023-06-24T03:00:07;8.55;;;4.90;;
20124;SDS011;10223;50.862;4.360;2023-06-24T03:02:37;6.97;;;4.18;;
20124;SDS011;10223;50.862;4.360;2023-06-24T03:05:05;6.40;;;4.60;;
20124;SDS011;10223;50.862;4.360;2023-06-24T03:07:33;10.07;;;4.82;;
20124;SDS011;10223;50.862;4.360;2023-06-24T03:10:01;9.75;;;4.72;;
20124;SDS011;10223;50.862;4.360;2023-06-24T03:12:31;14.85;;;4.90;;
20124;SDS011;10223;50.862;4.360;2023-06-24T03:14:58;6.30;;;4.57;;
20124;SDS011;10223;50.862;4.360;2023-06-24T03:17:25;7.88;;;4.57;;
20124;SDS011;10223;50.862;4.360;2023-06-24T03:19:52;14.35;;;5.30;;
20124;SDS011;10223;50.862;4.360;2023-06-24T03:22:20;7.35;;;4.75;;
20124;SDS011;10223;50.862;4.360;2023-06-24T03:24:47;7.38;;;5.22;;
20124;SDS011;10223;50.862;4.360;2023-06-24T03:27:16;6.88;;;4.70;;
20124;SDS011;10223;50.862;4.360;2023-06-24T03:29:45;12.00;;;4.80;;
20124;SDS011;10223;50.862;4.360;2023-06-24T03:32:12;8.90;;;5.00;;
20124;SDS011;10223;50.862;4.360;2023-06-24T03:34:39;8.10;;;4.55;;
20124;SDS011;10223;50.862;4.360;2023-06-24T03:37:06;10.52;;;5.72;;
20124;SDS011;10223;50.862;4.360;2023-06-24T03:39:32;8.40;;;5.43;;
20124;SDS011;10223;50.862;4.360;2023-06-24T03:41:59;9.75;;;5.68;;
20124;SDS011;10223;50.862;4.360;2023-06-24T03:44:26;9.43;;;5.28;;
20124;SDS011;10223;50.862;4.360;2023-06-24T03:46:54;10.07;;;5.15;;
20124;SDS011;10223;50.862;4.360;2023-06-24T03:49:21;12.75;;;5.55;;
20124;SDS011;10223;50.862;4.360;2023-06-24T03:51:48;10.38;;;5.60;;
20124;SDS011;10223;50.862;4.360;2023-06-24T03:54:15;11.15;;;5.50;;
20124;SDS011;10223;50.862;4.360;2023-06-24T03:56:42;12.18;;;5.05;;
20124;SDS011;10223;50.862;4.360;2023-06-24T03:59:09;8.23;;;5.25;;
20124;SDS011;10223;50.862;4.360;2023-06-24T04:01:36;9.85;;;5.13;;
20124;SDS011;10223;50.862;4.360;2023-06-24T04:04:04;11.60;;;5.13;;
20124;SDS011;10223;50.862;4.360;2023-06-24T04:06:31;10.32;;;5.93;;
20124;SDS011;10223;50.862;4.360;2023-06-24T04:08:58;9.00;;;5.90;;
20124;SDS011;10223;50.862;4.360;2023-06-24T04:11:24;15.13;;;5.95;;
20124;SDS011;10223;50.862;4.360;2023-06-24T04:13:51;9.05;;;5.35;;
20124;SDS011;10223;50.862;4.360;2023-06-24T04:16:18;14.60;;;6.30;;
20124;SDS011;10223;50.862;4.360;2023-06-24T04:18:45;9.43;;;6.00;;
20124;SDS011;10223;50.862;4.360;2023-06-24T04:21:13;10.32;;;5.25;;
20124;SDS011;10223;50.862;4.360;2023-06-24T04:23:40;12.60;;;5.53;;
20124;SDS011;10223;50.862;4.360;2023-06-24T04:26:07;8.48;;;5.10;;
20124;SDS011;10223;50.862;4.360;2023-06-24T04:28:34;9.80;;;5.65;;
20124;SDS011;10223;50.862;4.360;2023-06-24T04:31:03;9.20;;;5.07;;
20124;SDS011;10223;50.862;4.360;2023-06-24T04:33:30;9.48;;;5.18;;
20124;SDS011;10223;50.862;4.360;2023-06-24T04:35:57;10.98;;;5.90;;
20124;SDS011;10223;50.862;4.360;2023-06-24T04:38:26;11.00;;;6.10;;
20124;SDS011;10223;50.862;4.360;2023-06-24T04:40:53;11.30;;;5.30;;
20124;SDS011;10223;50.862;4.360;2023-06-24T04:43:20;8.25;;;4.75;;
20124;SDS011;10223;50.862;4.360;2023-06-24T04:45:47;12.38;;;5.35;;
20124;SDS011;10223;50.862;4.360;2023-06-24T04:48:14;7.15;;;5.30;;
20124;SDS011;10223;50.862;4.360;2023-06-24T04:50:40;9.07;;;4.95;;
20124;SDS011;10223;50.862;4.360;2023-06-24T04:53:07;9.10;;;5.10;;
20124;SDS011;10223;50.862;4.360;2023-06-24T04:55:36;11.27;;;5.60;;
20124;SDS011;10223;50.862;4.360;2023-06-24T04:58:02;9.23;;;5.10;;
20124;SDS011;10223;50.862;4.360;2023-06-24T05:00:29;7.38;;;5.05;;
20124;SDS011;10223;50.862;4.360;2023-06-24T05:02:56;7.25;;;4.95;;
20124;SDS011;10223;50.862;4.360;2023-06-24T05:05:23;8.90;;;4.82;;
20124;SDS011;10223;50.862;4.360;2023-06-24T05:07:50;9.52;;;5.07;;
20124;SDS011;10223;50.862;4.360;2023-06-24T05:10:17;12.40;;;5.65;;
20124;SDS011;10223;50.862;4.360;2023-06-24T05:12:45;10.18;;;5.50;;
20124;SDS011;10223;50.862;4.360;2023-06-24T05:15:12;7.43;;;5.00;;
20124;SDS011;10223;50.862;4.360;2023-06-24T05:17:39;9.18;;;4.57;;
20124;SDS011;10223;50.862;4.360;2023-06-24T05:20:07;8.93;;;4.85;;
20124;SDS011;10223;50.862;4.360;2023-06-24T05:22:34;9.15;;;5.28;;
20124;SDS011;10223;50.862;4.360;2023-06-24T05:25:01;11.85;;;4.93;;
20124;SDS011;10223;50.862;4.360;2023-06-24T05:27:28;7.05;;;4.78;;
20124;SDS011;10223;50.862;4.360;2023-06-24T05:29:56;8.43;;;5.07;;
20124;SDS011;10223;50.862;4.360;2023-06-24T05:32:23;13.75;;;5.03;;
20124;SDS011;10223;50.862;4.360;2023-06-24T05:34:50;6.70;;;4.25;;
20124;SDS011;10223;50.862;4.360;2023-06-24T05:37:17;9.05;;;4.53;;
20124;SDS011;10223;50.862;4.360;2023-06-24T05:39:44;11.57;;;4.60;;
20124;SDS011;10223;50.862;4.360;2023-06-24T05:42:10;9.57;;;4.85;;
20124;SDS011;10223;50.862;4.360;2023-06-24T05:44:37;9.70;;;4.63;;
20124;SDS011;10223;50.862;4.360;2023-06-24T05:47:06;7.60;;;4.25;;
20124;SDS011;10223;50.862;4.360;2023-06-24T05:49:32;7.13;;;4.30;;
20124;SDS011;10223;50.862;4.360;2023-06-24T05:51:59;7.47;;;4.05;;
20124;SDS011;10223;50.862;4.360;2023-06-24T05:54:26;7.10;;;4.03;;
20124;SDS011;10223;50.862;4.360;2023-06-24T05:56:53;8.82;;;3.72;;
20124;SDS011;10223;50.862;4.360;2023-06-24T05:59:20;7.75;;;4.57;;
20124;SDS011;10223;50.862;4.360;2023-06-24T06:01:47;8.82;;;4.30;;
20124;SDS011;10223;50.862;4.360;2023-06-24T06:04:15;8.20;;;4.32;;
20124;SDS011;10223;50.862;4.360;2023-06-24T06:06:42;5.93;;;4.13;;
20124;SDS011;10223;50.862;4.360;2023-06-24T06:09:09;8.43;;;4.10;;
20124;SDS011;10223;50.862;4.360;2023-06-24T06:11:35;6.70;;;4.20;;
20124;SDS011;10223;50.862;4.360;2023-06-24T06:14:02;7.95;;;4.35;;
20124;SDS011;10223;50.862;4.360;2023-06-24T06:16:29;6.00;;;3.80;;
20124;SDS011;10223;50.862;4.360;2023-06-24T06:18:56;6.93;;;3.58;;
20124;SDS011;10223;50.862;4.360;2023-06-24T06:21:24;6.70;;;3.85;;
20124;SDS011;10223;50.862;4.360;2023-06-24T06:23:51;6.30;;;3.85;;
20124;SDS011;10223;50.862;4.360;2023-06-24T06:26:18;9.80;;;4.22;;
20124;SDS011;10223;50.862;4.360;2023-06-24T06:28:45;7.32;;;4.28;;
20124;SDS011;10223;50.862;4.360;2023-06-24T06:31:13;5.28;;;3.50;;
20124;SDS011;10223;50.862;4.360;2023-06-24T06:33:40;6.43;;;3.78;;
20124;SDS011;10223;50.862;4.360;2023-06-24T06:36:06;14.88;;;7.20;;
20124;SDS011;10223;50.862;4.360;2023-06-24T06:38:35;8.27;;;3.90;;
20124;SDS011;10223;50.862;4.360;2023-06-24T06:41:02;14.32;;;4.30;;
20124;SDS011;10223;50.862;4.360;2023-06-24T06:43:28;5.13;;;3.30;;
20124;SDS011;10223;50.862;4.360;2023-06-24T06:45:55;5.90;;;3.70;;
20124;SDS011;10223;50.862;4.360;2023-06-24T06:48:22;5.38;;;3.58;;
20124;SDS011;10223;50.862;4.360;2023-06-24T06:50:49;6.22;;;3.70;;
20124;SDS011;10223;50.862;4.360;2023-06-24T06:53:17;7.75;;;3.72;;
20124;SDS011;10223;50.862;4.360;2023-06-24T06:55:45;6.15;;;3.90;;
20124;SDS011;10223;50.862;4.360;2023-06-24T06:58:12;5.75;;;3.80;;
20124;SDS011;10223;50.862;4.360;2023-06-24T07:00:39;7.10;;;3.97;;
20124;SDS011;10223;50.862;4.360;2023-06-24T07:03:06;6.60;;;3.78;;
20124;SDS011;10223;50.862;4.360;2023-06-24T07:05:33;7.00;;;3.58;;
20124;SDS011;10223;50.862;4.360;2023-06-24T07:08:00;7.13;;;3.45;;
20124;SDS011;10223;50.862;4.360;2023-06-24T07:10:26;8.95;;;3.78;;
20124;SDS011;10223;50.862;4.360;2023-06-24T07:12:55;5.50;;;3.50;;
20124;SDS011;10223;50.862;4.360;2023-06-24T07:15:23;9.48;;;3.72;;
20124;SDS011;10223;50.862;4.360;2023-06-24T07:17:50;5.97;;;3.50;;
20124;SDS011;10223;50.862;4.360;2023-06-24T07:20:17;8.27;;;3.80;;
20124;SDS011;10223;50.862;4.360;2023-06-24T07:22:44;5.70;;;3.17;;
20124;SDS011;10223;50.862;4.360;2023-06-24T07:25:11;6.22;;;2.97;;
20124;SDS011;10223;50.862;4.360;2023-06-24T07:27:39;6.95;;;3.17;;
20124;SDS011;10223;50.862;4.360;2023-06-24T07:30:08;6.75;;;2.80;;
20124;SDS011;10223;50.862;4.360;2023-06-24T07:32:35;5.35;;;3.08;;
20124;SDS011;10223;50.862;4.360;2023-06-24T07:35:02;5.57;;;2.85;;
20124;SDS011;10223;50.862;4.360;2023-06-24T07:37:30;7.68;;;3.15;;
20124;SDS011;10223;50.862;4.360;2023-06-24T07:39:57;5.53;;;2.78;;
20124;SDS011;10223;50.862;4.360;2023-06-24T07:42:24;5.68;;;2.90;;
20124;SDS011;10223;50.862;4.360;2023-06-24T07:44:50;4.05;;;2.40;;
20124;SDS011;10223;50.862;4.360;2023-06-24T07:47:19;6.60;;;3.80;;
20124;SDS011;10223;50.862;4.360;2023-06-24T07:49:46;6.53;;;2.38;;
20124;SDS011;10223;50.862;4.360;2023-06-24T07:52:13;5.43;;;2.45;;
20124;SDS011;10223;50.862;4.360;2023-06-24T07:54:40;7.43;;;2.70;;
20124;SDS011;10223;50.862;4.360;2023-06-24T07:57:07;6.03;;;2.47;;
20124;SDS011;10223;50.862;4.360;2023-06-24T07:59:34;7.20;;;3.15;;
20124;SDS011;10223;50.862;4.360;2023-06-24T08:02:01;3.78;;;2.30;;
20124;SDS011;10223;50.862;4.360;2023-06-24T08:04:30;4.65;;;2.08;;
20124;SDS011;10223;50.862;4.360;2023-06-24T08:06:56;3.33;;;2.33;;
20124;SDS011;10223;50.862;4.360;2023-06-24T08:09:23;4.85;;;2.45;;
20124;SDS011;10223;50.862;4.360;2023-06-24T08:11:50;3.85;;;2.58;;
20124;SDS011;10223;50.862;4.360;2023-06-24T08:14:17;5.03;;;2.10;;
20124;SDS011;10223;50.862;4.360;2023-06-24T08:16:44;7.80;;;3.92;;
20124;SDS011;10223;50.862;4.360;2023-06-24T08:19:11;5.22;;;2.72;;
20124;SDS011;10223;50.862;4.360;2023-06-24T08:21:39;4.55;;;2.20;;
20124;SDS011;10223;50.862;4.360;2023-06-24T08:24:06;3.30;;;1.88;;
20124;SDS011;10223;50.862;4.360;2023-06-24T08:26:33;7.68;;;2.78;;
20124;SDS011;10223;50.862;4.360;2023-06-24T08:29:00;3.92;;;2.50;;
20124;SDS011;10223;50.862;4.360;2023-06-24T08:31:26;4.38;;;2.63;;
20124;SDS011;10223;50.862;4.360;2023-06-24T08:33:53;7.35;;;2.70;;
20124;SDS011;10223;50.862;4.360;2023-06-24T08:36:21;3.55;;;2.05;;
20124;SDS011;10223;50.862;4.360;2023-06-24T08:38:51;4.10;;;2.08;;
20124;SDS011;10223;50.862;4.360;2023-06-24T08:41:18;5.43;;;2.45;;
20124;SDS011;10223;50.862;4.360;2023-06-24T08:43:44;3.35;;;1.98;;
20124;SDS011;10223;50.862;4.360;2023-06-24T08:46:11;4.22;;;1.85;;
20124;SDS011;10223;50.862;4.360;2023-06-24T08:48:40;2.97;;;2.30;;
20124;SDS011;10223;50.862;4.360;2023-06-24T08:51:11;3.72;;;1.98;;
20124;SDS011;10223;50.862;4.360;2023-06-24T08:53:45;3.83;;;2.78;;
20124;SDS011;10223;50.862;4.360;2023-06-24T08:56:15;4.25;;;1.98;;
20124;SDS011;10223;50.862;4.360;2023-06-24T08:58:42;4.88;;;2.05;;
20124;SDS011;10223;50.862;4.360;2023-06-24T09:01:10;3.13;;;1.85;;
20124;SDS011;10223;50.862;4.360;2023-06-24T09:03:37;3.47;;;1.80;;
20124;SDS011;10223;50.862;4.360;2023-06-24T09:06:04;2.63;;;1.90;;
20124;SDS011;10223;50.862;4.360;2023-06-24T09:08:31;4.20;;;1.95;;
20124;SDS011;10223;50.862;4.360;2023-06-24T09:11:00;3.45;;;2.08;;
20124;SDS011;10223;50.862;4.360;2023-06-24T09:13:34;4.18;;;1.98;;
20124;SDS011;10223;50.862;4.360;2023-06-24T09:16:11;3.33;;;2.22;;
20124;SDS011;10223;50.862;4.360;2023-06-24T09:18:39;4.68;;;1.85;;
20124;SDS011;10223;50.862;4.360;2023-06-24T09:21:08;3.05;;;2.00;;
20124;SDS011;10223;50.862;4.360;2023-06-24T09:23:37;5.18;;;1.83;;
20124;SDS011;10223;50.862;4.360;2023-06-24T09:26:05;6.95;;;2.03;;
20124;SDS011;10223;50.862;4.360;2023-06-24T09:28:37;3.05;;;1.20;;
20124;SDS011;10223;50.862;4.360;2023-06-24T09:31:05;3.92;;;1.80;;
20124;SDS011;10223;50.862;4.360;2023-06-24T09:33:32;2.13;;;1.33;;
20124;SDS011;10223;50.862;4.360;2023-06-24T09:36:01;2.42;;;1.75;;
20124;SDS011;10223;50.862;4.360;2023-06-24T09:38:32;2.83;;;1.60;;
20124;SDS011;10223;50.862;4.360;2023-06-24T09:41:01;3.88;;;2.08;;
20124;SDS011;10223;50.862;4.360;2023-06-24T09:43:28;4.95;;;1.83;;
20124;SDS011;10223;50.862;4.360;2023-06-24T09:45:57;2.35;;;1.70;;
20124;SDS011;10223;50.862;4.360;2023-06-24T09:48:23;3.22;;;1.60;;
20124;SDS011;10223;50.862;4.360;2023-06-24T09:50:50;4.05;;;1.60;;
20124;SDS011;10223;50.862;4.360;2023-06-24T09:53:17;3.40;;;1.50;;
20124;SDS011;10223;50.862;4.360;2023-06-24T09:55:45;2.70;;;1.70;;
20124;SDS011;10223;50.862;4.360;2023-06-24T09:58:13;3.03;;;1.88;;
20124;SDS011;10223;50.862;4.360;2023-06-24T10:00:42;2.72;;;1.63;;
20124;SDS011;10223;50.862;4.360;2023-06-24T10:03:11;4.00;;;1.70;;
20124;SDS011;10223;50.862;4.360;2023-06-24T10:05:38;3.25;;;1.63;;
20124;SDS011;10223;50.862;4.360;2023-06-24T10:08:06;5.15;;;1.52;;
20124;SDS011;10223;50.862;4.360;2023-06-24T10:10:35;2.72;;;1.48;;
20124;SDS011;10223;50.862;4.360;2023-06-24T10:13:02;3.10;;;1.60;;
20124;SDS011;10223;50.862;4.360;2023-06-24T10:15:29;2.33;;;1.40;;
20124;SDS011;10223;50.862;4.360;2023-06-24T10:17:58;2.40;;;1.63;;
20124;SDS011;10223;50.862;4.360;2023-06-24T10:20:29;4.30;;;1.90;;
20124;SDS011;10223;50.862;4.360;2023-06-24T10:23:05;5.07;;;1.75;;
20124;SDS011;10223;50.862;4.360;2023-06-24T10:25:35;2.38;;;1.30;;
20124;SDS011;10223;50.862;4.360;2023-06-24T10:28:03;2.55;;;1.67;;
20124;SDS011;10223;50.862;4.360;2023-06-24T10:30:30;3.60;;;1.75;;
20124;SDS011;10223;50.862;4.360;2023-06-24T10:32:58;3.78;;;1.70;;
20124;SDS011;10223;50.862;4.360;2023-06-24T10:35:25;4.80;;;1.80;;
20124;SDS011;10223;50.862;4.360;2023-06-24T10:37:56;3.25;;;1.95;;
20124;SDS011;10223;50.862;4.360;2023-06-24T10:40:34;3.53;;;1.75;;
20124;SDS011;10223;50.862;4.360;2023-06-24T10:43:04;2.13;;;1.50;;
20124;SDS011;10223;50.862;4.360;2023-06-24T10:45:51;4.30;;;2.25;;
20124;SDS011;10223;50.862;4.360;2023-06-24T10:48:19;4.22;;;1.90;;
20124;SDS011;10223;50.862;4.360;2023-06-24T10:50:46;3.13;;;2.10;;
20124;SDS011;10223;50.862;4.360;2023-06-24T10:53:16;4.47;;;1.90;;
20124;SDS011;10223;50.862;4.360;2023-06-24T10:55:44;3.85;;;2.20;;
20124;SDS011;10223;50.862;4.360;2023-06-24T10:58:12;5.45;;;2.20;;
20124;SDS011;10223;50.862;4.360;2023-06-24T11:00:40;3.65;;;2.17;;
20124;SDS011;10223;50.862;4.360;2023-06-24T11:03:08;9.05;;;4.78;;
20124;SDS011;10223;50.862;4.360;2023-06-24T11:05:37;2.15;;;1.65;;
20124;SDS011;10223;50.862;4.360;2023-06-24T11:08:05;4.30;;;1.95;;
20124;SDS011;10223;50.862;4.360;2023-06-24T11:10:34;3.30;;;1.95;;
20124;SDS011;10223;50.862;4.360;2023-06-24T11:13:11;4.03;;;2.40;;
20124;SDS011;10223;50.862;4.360;2023-06-24T11:15:38;4.68;;;2.25;;
20124;SDS011;10223;50.862;4.360;2023-06-24T11:18:07;3.92;;;2.42;;
20124;SDS011;10223;50.862;4.360;2023-06-24T11:20:35;19.70;;;13.85;;
20124;SDS011;10223;50.862;4.360;2023-06-24T11:23:02;2.67;;;1.98;;
20124;SDS011;10223;50.862;4.360;2023-06-24T11:25:37;3.22;;;1.60;;
20124;SDS011;10223;50.862;4.360;2023-06-24T11:28:11;7.03;;;3.80;;
20124;SDS011;10223;50.862;4.360;2023-06-24T11:30:39;5.32;;;2.45;;
20124;SDS011;10223;50.862;4.360;2023-06-24T11:33:06;5.82;;;2.40;;
20124;SDS011;10223;50.862;4.360;2023-06-24T11:35:33;3.88;;;2.10;;
20124;SDS011;10223;50.862;4.360;2023-06-24T11:38:02;4.35;;;2.70;;
20124;SDS011;10223;50.862;4.360;2023-06-24T11:40:30;2.80;;;2.00;;
20124;SDS011;10223;50.862;4.360;2023-06-24T11:43:01;3.83;;;2.25;;
20124;SDS011;10223;50.862;4.360;2023-06-24T11:45:28;2.75;;;1.92;;
20124;SDS011;10223;50.862;4.360;2023-06-24T11:48:01;2.40;;;1.90;;
20124;SDS011;10223;50.862;4.360;2023-06-24T11:50:30;2.95;;;1.90;;
20124;SDS011;10223;50.862;4.360;2023-06-24T11:52:57;3.38;;;1.90;;
20124;SDS011;10223;50.862;4.360;2023-06-24T11:55:24;2.58;;;1.90;;
20124;SDS011;10223;50.862;4.360;2023-06-24T11:57:56;7.32;;;2.92;;
20124;SDS011;10223;50.862;4.360;2023-06-24T12:00:26;5.15;;;2.15;;
20124;SDS011;10223;50.862;4.360;2023-06-24T12:02:54;4.40;;;2.38;;
20124;SDS011;10223;50.862;4.360;2023-06-24T12:05:22;2.60;;;1.98;;
20124;SDS011;10223;50.862;4.360;2023-06-24T12:07:56;9.32;;;7.15;;
20124;SDS011;10223;50.862;4.360;2023-06-24T12:10:24;2.78;;;1.85;;
20124;SDS011;10223;50.862;4.360;2023-06-24T12:12:51;5.63;;;2.22;;
20124;SDS011;10223;50.862;4.360;2023-06-24T12:15:19;3.95;;;1.77;;
20124;SDS011;10223;50.862;4.360;2023-06-24T12:17:47;4.10;;;1.80;;
20124;SDS011;10223;50.862;4.360;2023-06-24T12:20:14;3.75;;;2.08;;
20124;SDS011;10223;50.862;4.360;2023-06-24T12:22:42;2.67;;;1.77;;
20124;SDS011;10223;50.862;4.360;2023-06-24T12:25:10;6.85;;;2.33;;
20124;SDS011;10223;50.862;4.360;2023-06-24T12:27:37;3.60;;;2.00;;
20124;SDS011;10223;50.862;4.360;2023-06-24T12:30:05;3.00;;;2.30;;
20124;SDS011;10223;50.862;4.360;2023-06-24T12:32:33;6.65;;;2.00;;
20124;SDS011;10223;50.862;4.360;2023-06-24T12:35:01;4.78;;;2.65;;
20124;SDS011;10223;50.862;4.360;2023-06-24T12:37:29;4.03;;;2.20;;
20124;SDS011;10223;50.862;4.360;2023-06-24T12:39:57;4.25;;;2.22;;
20124;SDS011;10223;50.862;4.360;2023-06-24T12:42:24;4.55;;;2.20;;
20124;SDS011;10223;50.862;4.360;2023-06-24T12:44:51;4.28;;;2.28;;
20124;SDS011;10223;50.862;4.360;2023-06-24T12:47:18;4.32;;;2.00;;
20124;SDS011;10223;50.862;4.360;2023-06-24T12:49:45;4.28;;;2.08;;
20124;SDS011;10223;50.862;4.360;2023-06-24T12:52:13;3.45;;;2.13;;
20124;SDS011;10223;50.862;4.360;2023-06-24T12:54:40;4.28;;;2.10;;
20124;SDS011;10223;50.862;4.360;2023-06-24T12:57:07;5.32;;;2.20;;
20124;SDS011;10223;50.862;4.360;2023-06-24T12:59:34;4.35;;;2.67;;
20124;SDS011;10223;50.862;4.360;2023-06-24T13:02:01;3.47;;;2.22;;
20124;SDS011;10223;50.862;4.360;2023-06-24T13:04:28;3.80;;;2.33;;
20124;SDS011;10223;50.862;4.360;2023-06-24T13:06:55;4.28;;;2.45;;
20124;SDS011;10223;50.862;4.360;2023-06-24T13:09:24;3.72;;;1.90;;
20124;SDS011;10223;50.862;4.360;2023-06-24T13:11:51;3.72;;;2.00;;
20124;SDS011;10223;50.862;4.360;2023-06-24T13:14:17;3.05;;;2.10;;
20124;SDS011;10223;50.862;4.360;2023-06-24T13:16:44;4.45;;;2.20;;
20124;SDS011;10223;50.862;4.360;2023-06-24T13:19:11;3.42;;;2.03;;
20124;SDS011;10223;50.862;4.360;2023-06-24T13:21:38;4.25;;;2.30;;
20124;SDS011;10223;50.862;4.360;2023-06-24T13:24:06;4.05;;;2.03;;
20124;SDS011;10223;50.862;4.360;2023-06-24T13:26:35;3.33;;;2.08;;
20124;SDS011;10223;50.862;4.360;2023-06-24T13:29:01;5.82;;;3.00;;
20124;SDS011;10223;50.862;4.360;2023-06-24T13:31:28;3.97;;;2.65;;
20124;SDS011;10223;50.862;4.360;2023-06-24T13:33:55;3.72;;;2.30;;
20124;SDS011;10223;50.862;4.360;2023-06-24T13:36:27;4.95;;;2.05;;
20124;SDS011;10223;50.862;4.360;2023-06-24T13:38:56;3.78;;;1.75;;
20124;SDS011;10223;50.862;4.360;2023-06-24T13:41:23;7.28;;;2.10;;
20124;SDS011;10223;50.862;4.360;2023-06-24T13:43:55;3.38;;;2.05;;
20124;SDS011;10223;50.862;4.360;2023-06-24T13:46:22;3.63;;;1.63;;
20124;SDS011;10223;50.862;4.360;2023-06-24T13:48:49;5.05;;;2.17;;
20124;SDS011;10223;50.862;4.360;2023-06-24T13:51:17;4.50;;;2.80;;
20124;SDS011;10223;50.862;4.360;2023-06-24T13:53:45;5.65;;;2.47;;
20124;SDS011;10223;50.862;4.360;2023-06-24T13:56:12;6.22;;;3.05;;
20124;SDS011;10223;50.862;4.360;2023-06-24T13:58:39;7.43;;;2.78;;
20124;SDS011;10223;50.862;4.360;2023-06-24T14:01:07;3.22;;;1.98;;
20124;SDS011;10223;50.862;4.360;2023-06-24T14:03:34;5.22;;;2.67;;
20124;SDS011;10223;50.862;4.360;2023-06-24T14:06:01;3.35;;;2.30;;
20124;SDS011;10223;50.862;4.360;2023-06-24T14:08:29;4.43;;;2.38;;
20124;SDS011;10223;50.862;4.360;2023-06-24T14:10:57;4.30;;;2.30;;
20124;SDS011;10223;50.862;4.360;2023-06-24T14:13:25;3.15;;;2.22;;
20124;SDS011;10223;50.862;4.360;2023-06-24T14:15:53;3.45;;;2.60;;
20124;SDS011;10223;50.862;4.360;2023-06-24T14:18:21;3.67;;;2.47;;
20124;SDS011;10223;50.862;4.360;2023-06-24T14:20:48;3.10;;;2.00;;
20124;SDS011;10223;50.862;4.360;2023-06-24T14:23:15;4.10;;;2.45;;
20124;SDS011;10223;50.862;4.360;2023-06-24T14:25:42;3.20;;;2.30;;
20124;SDS011;10223;50.862;4.360;2023-06-24T14:28:09;3.05;;;2.10;;
20124;SDS011;10223;50.862;4.360;2023-06-24T14:30:35;3.38;;;2.25;;
20124;SDS011;10223;50.862;4.360;2023-06-24T14:33:02;2.83;;;2.30;;
20124;SDS011;10223;50.862;4.360;2023-06-24T14:35:31;3.08;;;2.30;;
20124;SDS011;10223;50.862;4.360;2023-06-24T14:37:58;3.58;;;2.38;;
20124;SDS011;10223;50.862;4.360;2023-06-24T14:40:25;4.30;;;3.40;;
20124;SDS011;10223;50.862;4.360;2023-06-24T14:42:51;10.10;;;3.83;;
20124;SDS011;10223;50.862;4.360;2023-06-24T14:45:18;3.63;;;2.63;;
20124;SDS011;10223;50.862;4.360;2023-06-24T14:47:45;2.97;;;2.40;;
20124;SDS011;10223;50.862;4.360;2023-06-24T14:50:13;5.07;;;2.67;;
20124;SDS011;10223;50.862;4.360;2023-06-24T14:52:41;4.97;;;2.40;;